sensor_id;sensor_type;location;lat;lon;timestamp;P1;durP1;ratioP1;P2;durP2;ratioP2
64252;SDS011;50592;52.958;-7.470;2022-12-29T00:01:50;4.05;;;0.75;;
64252;SDS011;50592;52.958;-7.470;2022-12-29T00:04:17;4.05;;;0.73;;
64252;SDS011;50592;52.958;-7.470;2022-12-29T00:06:43;6.07;;;0.70;;
64252;SDS011;50592;52.958;-7.470;2022-12-29T00:09:12;4.30;;;0.68;;
64252;SDS011;50592;52.958;-7.470;2022-12-29T00:11:38;5.00;;;0.90;;
64252;SDS011;50592;52.958;-7.470;2022-12-29T00:14:05;4.85;;;0.80;;
64252;SDS011;50592;52.958;-7.470;2022-12-29T00:17:03;4.20;;;0.68;;
64252;SDS011;50592;52.958;-7.470;2022-12-29T00:19:30;2.75;;;0.93;;
64252;SDS011;50592;52.958;-7.470;2022-12-29T00:22:15;4.88;;;0.70;;
64252;SDS011;50592;52.958;-7.470;2022-12-29T00:24:59;1.60;;;0.60;;
64252;SDS011;50592;52.958;-7.470;2022-12-29T00:27:44;8.15;;;1.30;;
64252;SDS011;50592;52.958;-7.470;2022-12-29T00:30:28;1.83;;;0.50;;
64252;SDS011;50592;52.958;-7.470;2022-12-29T00:33:14;5.53;;;1.23;;
64252;SDS011;50592;52.958;-7.470;2022-12-29T00:39:06;4.43;;;0.60;;
64252;SDS011;50592;52.958;-7.470;2022-12-29T00:42:05;6.38;;;1.98;;
64252;SDS011;50592;52.958;-7.470;2022-12-29T00:44:50;5.28;;;0.82;;
64252;SDS011;50592;52.958;-7.470;2022-12-29T00:47:17;7.20;;;1.40;;
64252;SDS011;50592;52.958;-7.470;2022-12-29T00:49:42;5.35;;;0.60;;
64252;SDS011;50592;52.958;-7.470;2022-12-29T00:52:09;5.70;;;0.65;;
64252;SDS011;50592;52.958;-7.470;2022-12-29T00:54:37;4.18;;;0.70;;
64252;SDS011;50592;52.958;-7.470;2022-12-29T00:57:06;10.75;;;1.25;;
64252;SDS011;50592;52.958;-7.470;2022-12-29T00:59:36;6.15;;;0.77;;
64252;SDS011;50592;52.958;-7.470;2022-12-29T01:02:03;7.80;;;1.10;;
64252;SDS011;50592;52.958;-7.470;2022-12-29T01:04:29;5.47;;;0.55;;
64252;SDS011;50592;52.958;-7.470;2022-12-29T01:06:55;7.20;;;1.15;;
64252;SDS011;50592;52.958;-7.470;2022-12-29T01:09:21;8.93;;;1.45;;
64252;SDS011;50592;52.958;-7.470;2022-12-29T01:12:07;13.68;;;1.08;;
64252;SDS011;50592;52.958;-7.470;2022-12-29T01:14:33;5.72;;;1.10;;
64252;SDS011;50592;52.958;-7.470;2022-12-29T01:17:02;10.13;;;1.30;;
64252;SDS011;50592;52.958;-7.470;2022-12-29T01:19:28;7.50;;;1.10;;
64252;SDS011;50592;52.958;-7.470;2022-12-29T01:21:55;9.68;;;0.95;;
64252;SDS011;50592;52.958;-7.470;2022-12-29T01:24:21;7.65;;;0.93;;
64252;SDS011;50592;52.958;-7.470;2022-12-29T01:26:47;4.53;;;0.98;;
64252;SDS011;50592;52.958;-7.470;2022-12-29T01:29:15;6.10;;;1.73;;
64252;SDS011;50592;52.958;-7.470;2022-12-29T01:31:44;4.07;;;0.70;;
64252;SDS011;50592;52.958;-7.470;2022-12-29T01:34:10;5.10;;;1.48;;
64252;SDS011;50592;52.958;-7.470;2022-12-29T01:36:37;7.22;;;0.85;;
64252;SDS011;50592;52.958;-7.470;2022-12-29T01:39:03;7.93;;;0.77;;
64252;SDS011;50592;52.958;-7.470;2022-12-29T01:41:29;6.05;;;0.88;;
64252;SDS011;50592;52.958;-7.470;2022-12-29T01:43:56;8.23;;;0.80;;
64252;SDS011;50592;52.958;-7.470;2022-12-29T01:51:35;6.03;;;0.88;;
64252;SDS011;50592;52.958;-7.470;2022-12-29T01:54:04;7.10;;;1.20;;
64252;SDS011;50592;52.958;-7.470;2022-12-29T01:56:36;6.93;;;0.90;;
64252;SDS011;50592;52.958;-7.470;2022-12-29T01:59:06;11.70;;;0.88;;
64252;SDS011;50592;52.958;-7.470;2022-12-29T02:01:37;4.90;;;0.68;;
64252;SDS011;50592;52.958;-7.470;2022-12-29T02:04:03;5.57;;;0.98;;
64252;SDS011;50592;52.958;-7.470;2022-12-29T02:06:41;5.85;;;0.60;;
64252;SDS011;50592;52.958;-7.470;2022-12-29T02:09:28;3.67;;;0.40;;
64252;SDS011;50592;52.958;-7.470;2022-12-29T02:11:55;4.15;;;0.98;;
64252;SDS011;50592;52.958;-7.470;2022-12-29T02:14:22;5.65;;;0.60;;
64252;SDS011;50592;52.958;-7.470;2022-12-29T02:22:45;9.30;;;0.80;;
64252;SDS011;50592;52.958;-7.470;2022-12-29T02:25:23;7.60;;;0.90;;
64252;SDS011;50592;52.958;-7.470;2022-12-29T02:30:57;5.88;;;0.90;;
64252;SDS011;50592;52.958;-7.470;2022-12-29T02:36:23;5.20;;;0.70;;
64252;SDS011;50592;52.958;-7.470;2022-12-29T02:50:20;6.25;;;0.82;;
64252;SDS011;50592;52.958;-7.470;2022-12-29T02:53:02;5.32;;;0.65;;
64252;SDS011;50592;52.958;-7.470;2022-12-29T02:55:33;3.05;;;0.65;;
64252;SDS011;50592;52.958;-7.470;2022-12-29T03:00:35;6.57;;;0.65;;
64252;SDS011;50592;52.958;-7.470;2022-12-29T03:03:16;6.65;;;0.50;;
64252;SDS011;50592;52.958;-7.470;2022-12-29T03:11:13;6.50;;;1.17;;
64252;SDS011;50592;52.958;-7.470;2022-12-29T03:17:18;9.10;;;1.83;;
64252;SDS011;50592;52.958;-7.470;2022-12-29T03:19:52;5.82;;;1.38;;
64252;SDS011;50592;52.958;-7.470;2022-12-29T03:22:27;7.10;;;0.95;;
64252;SDS011;50592;52.958;-7.470;2022-12-29T03:25:17;8.80;;;1.27;;
64252;SDS011;50592;52.958;-7.470;2022-12-29T03:27:53;3.83;;;0.70;;
64252;SDS011;50592;52.958;-7.470;2022-12-29T03:30:37;7.40;;;1.40;;
64252;SDS011;50592;52.958;-7.470;2022-12-29T03:33:10;2.28;;;0.70;;
64252;SDS011;50592;52.958;-7.470;2022-12-29T03:35:40;4.10;;;0.68;;
64252;SDS011;50592;52.958;-7.470;2022-12-29T03:38:14;5.43;;;0.82;;
64252;SDS011;50592;52.958;-7.470;2022-12-29T03:40:46;3.27;;;0.57;;
64252;SDS011;50592;52.958;-7.470;2022-12-29T03:43:15;6.20;;;0.93;;
64252;SDS011;50592;52.958;-7.470;2022-12-29T03:45:43;6.25;;;0.82;;
64252;SDS011;50592;52.958;-7.470;2022-12-29T03:48:09;7.32;;;0.80;;
64252;SDS011;50592;52.958;-7.470;2022-12-29T03:50:40;4.82;;;0.75;;
64252;SDS011;50592;52.958;-7.470;2022-12-29T03:53:06;7.20;;;0.65;;
64252;SDS011;50592;52.958;-7.470;2022-12-29T03:55:33;8.10;;;0.88;;
64252;SDS011;50592;52.958;-7.470;2022-12-29T03:57:58;4.57;;;1.05;;
64252;SDS011;50592;52.958;-7.470;2022-12-29T04:00:46;8.65;;;1.13;;
64252;SDS011;50592;52.958;-7.470;2022-12-29T04:03:11;10.05;;;1.45;;
64252;SDS011;50592;52.958;-7.470;2022-12-29T04:05:37;6.95;;;0.93;;
64252;SDS011;50592;52.958;-7.470;2022-12-29T04:08:03;6.97;;;1.17;;
64252;SDS011;50592;52.958;-7.470;2022-12-29T04:10:29;8.27;;;1.17;;
64252;SDS011;50592;52.958;-7.470;2022-12-29T04:12:58;8.32;;;0.98;;
64252;SDS011;50592;52.958;-7.470;2022-12-29T04:15:25;8.57;;;0.93;;
64252;SDS011;50592;52.958;-7.470;2022-12-29T04:17:52;9.95;;;1.10;;
64252;SDS011;50592;52.958;-7.470;2022-12-29T04:20:17;10.70;;;1.27;;
64252;SDS011;50592;52.958;-7.470;2022-12-29T04:23:05;10.18;;;0.98;;
64252;SDS011;50592;52.958;-7.470;2022-12-29T04:25:33;8.00;;;1.15;;
64252;SDS011;50592;52.958;-7.470;2022-12-29T04:28:00;11.70;;;1.50;;
64252;SDS011;50592;52.958;-7.470;2022-12-29T04:30:49;9.75;;;1.30;;
64252;SDS011;50592;52.958;-7.470;2022-12-29T04:33:22;8.00;;;1.00;;
64252;SDS011;50592;52.958;-7.470;2022-12-29T04:35:47;11.15;;;1.15;;
64252;SDS011;50592;52.958;-7.470;2022-12-29T04:38:14;11.25;;;1.73;;
64252;SDS011;50592;52.958;-7.470;2022-12-29T04:40:41;12.38;;;1.30;;
64252;SDS011;50592;52.958;-7.470;2022-12-29T04:43:09;14.68;;;1.83;;
64252;SDS011;50592;52.958;-7.470;2022-12-29T04:45:54;10.50;;;1.33;;
64252;SDS011;50592;52.958;-7.470;2022-12-29T04:48:27;18.33;;;2.53;;
64252;SDS011;50592;52.958;-7.470;2022-12-29T04:51:10;12.15;;;1.85;;
64252;SDS011;50592;52.958;-7.470;2022-12-29T04:53:38;9.07;;;1.30;;
64252;SDS011;50592;52.958;-7.470;2022-12-29T04:56:04;13.77;;;1.80;;
64252;SDS011;50592;52.958;-7.470;2022-12-29T04:58:31;10.57;;;1.70;;
64252;SDS011;50592;52.958;-7.470;2022-12-29T05:00:58;14.07;;;1.48;;
64252;SDS011;50592;52.958;-7.470;2022-12-29T05:03:27;8.88;;;1.42;;
64252;SDS011;50592;52.958;-7.470;2022-12-29T05:05:54;8.73;;;1.90;;
64252;SDS011;50592;52.958;-7.470;2022-12-29T05:08:20;6.40;;;1.13;;
64252;SDS011;50592;52.958;-7.470;2022-12-29T05:10:47;12.52;;;1.85;;
64252;SDS011;50592;52.958;-7.470;2022-12-29T05:13:16;12.00;;;1.40;;
64252;SDS011;50592;52.958;-7.470;2022-12-29T05:15:47;11.85;;;2.20;;
64252;SDS011;50592;52.958;-7.470;2022-12-29T05:18:15;16.55;;;2.05;;
64252;SDS011;50592;52.958;-7.470;2022-12-29T05:20:41;12.10;;;1.80;;
64252;SDS011;50592;52.958;-7.470;2022-12-29T05:23:07;14.02;;;1.75;;
64252;SDS011;50592;52.958;-7.470;2022-12-29T05:25:33;13.30;;;2.03;;
64252;SDS011;50592;52.958;-7.470;2022-12-29T05:28:19;9.10;;;1.50;;
64252;SDS011;50592;52.958;-7.470;2022-12-29T05:30:53;10.18;;;1.70;;
64252;SDS011;50592;52.958;-7.470;2022-12-29T05:33:19;16.30;;;2.53;;
64252;SDS011;50592;52.958;-7.470;2022-12-29T05:35:46;14.75;;;1.83;;
64252;SDS011;50592;52.958;-7.470;2022-12-29T05:38:13;12.18;;;1.80;;
64252;SDS011;50592;52.958;-7.470;2022-12-29T05:40:39;9.45;;;1.48;;
64252;SDS011;50592;52.958;-7.470;2022-12-29T05:43:14;13.50;;;1.40;;
64252;SDS011;50592;52.958;-7.470;2022-12-29T05:46:01;18.33;;;2.03;;
64252;SDS011;50592;52.958;-7.470;2022-12-29T05:48:53;11.57;;;2.15;;
64252;SDS011;50592;52.958;-7.470;2022-12-29T05:51:24;13.35;;;2.15;;
64252;SDS011;50592;52.958;-7.470;2022-12-29T05:53:52;8.18;;;2.45;;
64252;SDS011;50592;52.958;-7.470;2022-12-29T05:56:18;11.25;;;1.20;;
64252;SDS011;50592;52.958;-7.470;2022-12-29T05:58:51;9.00;;;1.05;;
64252;SDS011;50592;52.958;-7.470;2022-12-29T06:01:16;11.02;;;1.17;;
64252;SDS011;50592;52.958;-7.470;2022-12-29T06:03:43;11.07;;;1.27;;
64252;SDS011;50592;52.958;-7.470;2022-12-29T06:06:09;9.70;;;1.88;;
64252;SDS011;50592;52.958;-7.470;2022-12-29T06:08:36;7.57;;;1.65;;
64252;SDS011;50592;52.958;-7.470;2022-12-29T06:11:02;14.38;;;1.65;;
64252;SDS011;50592;52.958;-7.470;2022-12-29T06:13:28;11.57;;;1.33;;
64252;SDS011;50592;52.958;-7.470;2022-12-29T06:15:55;7.03;;;1.52;;
64252;SDS011;50592;52.958;-7.470;2022-12-29T06:18:21;16.70;;;2.45;;
64252;SDS011;50592;52.958;-7.470;2022-12-29T06:20:47;7.32;;;0.98;;
64252;SDS011;50592;52.958;-7.470;2022-12-29T06:23:14;7.68;;;2.08;;
64252;SDS011;50592;52.958;-7.470;2022-12-29T06:25:41;10.93;;;1.58;;
64252;SDS011;50592;52.958;-7.470;2022-12-29T06:28:07;11.20;;;2.38;;
64252;SDS011;50592;52.958;-7.470;2022-12-29T06:30:35;7.82;;;0.90;;
64252;SDS011;50592;52.958;-7.470;2022-12-29T06:33:01;8.35;;;0.93;;
64252;SDS011;50592;52.958;-7.470;2022-12-29T06:35:28;7.13;;;1.00;;
64252;SDS011;50592;52.958;-7.470;2022-12-29T06:37:53;8.93;;;1.20;;
64252;SDS011;50592;52.958;-7.470;2022-12-29T06:40:19;9.32;;;1.13;;
64252;SDS011;50592;52.958;-7.470;2022-12-29T06:43:08;8.18;;;1.08;;
64252;SDS011;50592;52.958;-7.470;2022-12-29T06:45:52;9.82;;;1.42;;
64252;SDS011;50592;52.958;-7.470;2022-12-29T06:48:18;7.22;;;0.93;;
64252;SDS011;50592;52.958;-7.470;2022-12-29T06:50:44;8.48;;;1.17;;
64252;SDS011;50592;52.958;-7.470;2022-12-29T06:53:09;7.80;;;0.80;;
64252;SDS011;50592;52.958;-7.470;2022-12-29T06:55:35;10.10;;;1.17;;
64252;SDS011;50592;52.958;-7.470;2022-12-29T06:58:01;8.05;;;1.35;;
64252;SDS011;50592;52.958;-7.470;2022-12-29T07:00:27;6.18;;;1.23;;
64252;SDS011;50592;52.958;-7.470;2022-12-29T07:02:54;7.63;;;1.00;;
64252;SDS011;50592;52.958;-7.470;2022-12-29T07:05:21;8.85;;;1.80;;
64252;SDS011;50592;52.958;-7.470;2022-12-29T07:07:47;6.60;;;1.25;;
64252;SDS011;50592;52.958;-7.470;2022-12-29T07:10:12;8.55;;;0.90;;
64252;SDS011;50592;52.958;-7.470;2022-12-29T07:12:38;6.15;;;0.85;;
64252;SDS011;50592;52.958;-7.470;2022-12-29T07:15:04;7.30;;;0.93;;
64252;SDS011;50592;52.958;-7.470;2022-12-29T07:17:30;10.77;;;1.75;;
64252;SDS011;50592;52.958;-7.470;2022-12-29T07:19:56;7.53;;;2.38;;
64252;SDS011;50592;52.958;-7.470;2022-12-29T07:22:21;5.10;;;0.70;;
64252;SDS011;50592;52.958;-7.470;2022-12-29T07:24:47;5.85;;;0.80;;
64252;SDS011;50592;52.958;-7.470;2022-12-29T07:27:13;8.68;;;1.20;;
64252;SDS011;50592;52.958;-7.470;2022-12-29T07:29:39;8.40;;;1.13;;
64252;SDS011;50592;52.958;-7.470;2022-12-29T07:32:05;7.25;;;0.82;;
64252;SDS011;50592;52.958;-7.470;2022-12-29T07:34:30;9.32;;;0.80;;
64252;SDS011;50592;52.958;-7.470;2022-12-29T07:36:56;8.10;;;1.20;;
64252;SDS011;50592;52.958;-7.470;2022-12-29T07:39:22;5.00;;;0.70;;
64252;SDS011;50592;52.958;-7.470;2022-12-29T07:41:48;3.53;;;0.60;;
64252;SDS011;50592;52.958;-7.470;2022-12-29T07:44:17;4.65;;;0.80;;
64252;SDS011;50592;52.958;-7.470;2022-12-29T07:47:11;9.57;;;1.00;;
64252;SDS011;50592;52.958;-7.470;2022-12-29T07:49:37;6.43;;;1.10;;
64252;SDS011;50592;52.958;-7.470;2022-12-29T07:52:02;7.75;;;0.88;;
64252;SDS011;50592;52.958;-7.470;2022-12-29T07:54:28;12.18;;;1.58;;
64252;SDS011;50592;52.958;-7.470;2022-12-29T07:56:54;8.95;;;1.33;;
64252;SDS011;50592;52.958;-7.470;2022-12-29T07:59:20;7.57;;;1.10;;
64252;SDS011;50592;52.958;-7.470;2022-12-29T08:01:46;9.48;;;1.25;;
64252;SDS011;50592;52.958;-7.470;2022-12-29T08:04:12;7.95;;;1.52;;
64252;SDS011;50592;52.958;-7.470;2022-12-29T08:06:38;4.30;;;0.82;;
64252;SDS011;50592;52.958;-7.470;2022-12-29T08:09:03;5.72;;;0.80;;
64252;SDS011;50592;52.958;-7.470;2022-12-29T08:11:29;5.25;;;0.63;;
64252;SDS011;50592;52.958;-7.470;2022-12-29T08:13:55;10.35;;;0.90;;
64252;SDS011;50592;52.958;-7.470;2022-12-29T08:16:21;3.83;;;0.50;;
64252;SDS011;50592;52.958;-7.470;2022-12-29T08:18:46;6.03;;;0.60;;
64252;SDS011;50592;52.958;-7.470;2022-12-29T08:21:12;7.57;;;0.77;;
64252;SDS011;50592;52.958;-7.470;2022-12-29T08:23:38;6.80;;;1.25;;
64252;SDS011;50592;52.958;-7.470;2022-12-29T08:26:04;5.05;;;1.20;;
64252;SDS011;50592;52.958;-7.470;2022-12-29T08:28:31;10.95;;;1.63;;
64252;SDS011;50592;52.958;-7.470;2022-12-29T08:30:58;7.35;;;1.02;;
64252;SDS011;50592;52.958;-7.470;2022-12-29T08:33:26;7.45;;;1.85;;
64252;SDS011;50592;52.958;-7.470;2022-12-29T08:35:54;9.75;;;1.67;;
64252;SDS011;50592;52.958;-7.470;2022-12-29T08:38:24;6.38;;;0.90;;
64252;SDS011;50592;52.958;-7.470;2022-12-29T08:40:51;10.98;;;0.90;;
64252;SDS011;50592;52.958;-7.470;2022-12-29T08:43:16;8.55;;;1.38;;
64252;SDS011;50592;52.958;-7.470;2022-12-29T08:45:42;7.13;;;1.02;;
64252;SDS011;50592;52.958;-7.470;2022-12-29T08:48:08;7.18;;;0.80;;
64252;SDS011;50592;52.958;-7.470;2022-12-29T08:50:34;4.18;;;0.70;;
64252;SDS011;50592;52.958;-7.470;2022-12-29T08:52:59;14.10;;;1.60;;
64252;SDS011;50592;52.958;-7.470;2022-12-29T08:55:27;14.80;;;1.85;;
64252;SDS011;50592;52.958;-7.470;2022-12-29T08:57:53;11.15;;;1.73;;
64252;SDS011;50592;52.958;-7.470;2022-12-29T09:00:19;9.98;;;2.08;;
64252;SDS011;50592;52.958;-7.470;2022-12-29T09:02:46;8.30;;;1.30;;
64252;SDS011;50592;52.958;-7.470;2022-12-29T09:05:12;14.63;;;1.40;;
64252;SDS011;50592;52.958;-7.470;2022-12-29T09:07:37;11.23;;;1.40;;
64252;SDS011;50592;52.958;-7.470;2022-12-29T09:10:04;10.68;;;1.25;;
64252;SDS011;50592;52.958;-7.470;2022-12-29T09:12:30;9.38;;;1.65;;
64252;SDS011;50592;52.958;-7.470;2022-12-29T09:14:56;12.23;;;2.00;;
64252;SDS011;50592;52.958;-7.470;2022-12-29T09:17:22;8.70;;;1.52;;
64252;SDS011;50592;52.958;-7.470;2022-12-29T09:20:06;5.57;;;1.42;;
64252;SDS011;50592;52.958;-7.470;2022-12-29T09:22:34;13.25;;;1.77;;
64252;SDS011;50592;52.958;-7.470;2022-12-29T09:25:00;7.90;;;0.82;;
64252;SDS011;50592;52.958;-7.470;2022-12-29T09:27:26;4.88;;;0.88;;
64252;SDS011;50592;52.958;-7.470;2022-12-29T09:29:52;2.90;;;0.55;;
64252;SDS011;50592;52.958;-7.470;2022-12-29T09:32:17;4.65;;;0.45;;
64252;SDS011;50592;52.958;-7.470;2022-12-29T09:34:43;4.13;;;0.57;;
64252;SDS011;50592;52.958;-7.470;2022-12-29T09:37:09;6.10;;;0.70;;
64252;SDS011;50592;52.958;-7.470;2022-12-29T09:39:35;8.80;;;0.88;;
64252;SDS011;50592;52.958;-7.470;2022-12-29T09:42:03;7.43;;;1.60;;
64252;SDS011;50592;52.958;-7.470;2022-12-29T09:44:51;7.72;;;1.17;;
64252;SDS011;50592;52.958;-7.470;2022-12-29T09:47:22;4.78;;;1.00;;
64252;SDS011;50592;52.958;-7.470;2022-12-29T09:49:51;9.43;;;1.10;;
64252;SDS011;50592;52.958;-7.470;2022-12-29T09:52:22;10.07;;;1.10;;
64252;SDS011;50592;52.958;-7.470;2022-12-29T09:57:24;10.20;;;1.52;;
64252;SDS011;50592;52.958;-7.470;2022-12-29T10:02:59;8.18;;;1.63;;
64252;SDS011;50592;52.958;-7.470;2022-12-29T10:05:35;3.67;;;0.73;;
64252;SDS011;50592;52.958;-7.470;2022-12-29T10:11:07;8.40;;;1.55;;
64252;SDS011;50592;52.958;-7.470;2022-12-29T10:21:16;12.95;;;1.10;;
64252;SDS011;50592;52.958;-7.470;2022-12-29T10:24:03;14.30;;;2.50;;
64252;SDS011;50592;52.958;-7.470;2022-12-29T10:26:39;5.72;;;0.80;;
64252;SDS011;50592;52.958;-7.470;2022-12-29T10:31:49;5.97;;;1.13;;
64252;SDS011;50592;52.958;-7.470;2022-12-29T10:34:31;10.55;;;1.45;;
64252;SDS011;50592;52.958;-7.470;2022-12-29T10:39:51;13.70;;;1.35;;
64252;SDS011;50592;52.958;-7.470;2022-12-29T10:42:41;2.88;;;0.68;;
64252;SDS011;50592;52.958;-7.470;2022-12-29T10:45:15;9.30;;;1.38;;
64252;SDS011;50592;52.958;-7.470;2022-12-29T10:47:58;9.38;;;1.38;;
64252;SDS011;50592;52.958;-7.470;2022-12-29T10:50:48;9.27;;;1.17;;
64252;SDS011;50592;52.958;-7.470;2022-12-29T10:53:18;5.53;;;1.60;;
64252;SDS011;50592;52.958;-7.470;2022-12-29T10:55:47;8.82;;;1.77;;
64252;SDS011;50592;52.958;-7.470;2022-12-29T10:58:14;13.18;;;2.45;;
64252;SDS011;50592;52.958;-7.470;2022-12-29T11:00:50;7.40;;;1.38;;
64252;SDS011;50592;52.958;-7.470;2022-12-29T11:08:39;9.48;;;2.80;;
64252;SDS011;50592;52.958;-7.470;2022-12-29T11:11:14;6.35;;;1.75;;
64252;SDS011;50592;52.958;-7.470;2022-12-29T11:13:55;8.07;;;2.45;;
64252;SDS011;50592;52.958;-7.470;2022-12-29T11:16:26;6.88;;;1.45;;
64252;SDS011;50592;52.958;-7.470;2022-12-29T11:18:58;4.55;;;0.75;;
64252;SDS011;50592;52.958;-7.470;2022-12-29T11:21:26;11.10;;;1.83;;
64252;SDS011;50592;52.958;-7.470;2022-12-29T11:24:04;4.30;;;0.82;;
64252;SDS011;50592;52.958;-7.470;2022-12-29T11:26:44;3.33;;;0.60;;
64252;SDS011;50592;52.958;-7.470;2022-12-29T11:31:46;6.75;;;1.30;;
64252;SDS011;50592;52.958;-7.470;2022-12-29T11:34:32;5.45;;;1.05;;
64252;SDS011;50592;52.958;-7.470;2022-12-29T11:40:24;7.60;;;1.58;;
64252;SDS011;50592;52.958;-7.470;2022-12-29T11:42:48;7.20;;;1.55;;
64252;SDS011;50592;52.958;-7.470;2022-12-29T11:48:18;7.78;;;1.23;;
64252;SDS011;50592;52.958;-7.470;2022-12-29T11:50:55;2.05;;;0.47;;
64252;SDS011;50592;52.958;-7.470;2022-12-29T11:56:35;4.30;;;0.70;;
64252;SDS011;50592;52.958;-7.470;2022-12-29T12:02:28;8.10;;;0.80;;
64252;SDS011;50592;52.958;-7.470;2022-12-29T12:05:10;7.00;;;1.08;;
64252;SDS011;50592;52.958;-7.470;2022-12-29T12:07:41;4.32;;;0.93;;
64252;SDS011;50592;52.958;-7.470;2022-12-29T12:10:12;6.80;;;1.00;;
64252;SDS011;50592;52.958;-7.470;2022-12-29T12:12:50;5.18;;;0.80;;
64252;SDS011;50592;52.958;-7.470;2022-12-29T12:15:25;8.32;;;1.20;;
64252;SDS011;50592;52.958;-7.470;2022-12-29T12:18:09;5.82;;;1.10;;
64252;SDS011;50592;52.958;-7.470;2022-12-29T12:20:44;5.72;;;1.30;;
64252;SDS011;50592;52.958;-7.470;2022-12-29T12:26:30;6.65;;;1.38;;
64252;SDS011;50592;52.958;-7.470;2022-12-29T12:29:32;12.30;;;1.48;;
64252;SDS011;50592;52.958;-7.470;2022-12-29T12:32:04;10.23;;;1.15;;
64252;SDS011;50592;52.958;-7.470;2022-12-29T12:34:39;12.13;;;1.42;;
64252;SDS011;50592;52.958;-7.470;2022-12-29T12:45:36;4.35;;;1.20;;
64252;SDS011;50592;52.958;-7.470;2022-12-29T13:06:48;3.85;;;0.60;;
64252;SDS011;50592;52.958;-7.470;2022-12-29T13:09:26;4.53;;;0.50;;
64252;SDS011;50592;52.958;-7.470;2022-12-29T13:12:15;2.30;;;0.60;;
64252;SDS011;50592;52.958;-7.470;2022-12-29T13:15:07;3.60;;;0.73;;
64252;SDS011;50592;52.958;-7.470;2022-12-29T13:17:44;2.38;;;0.40;;
64252;SDS011;50592;52.958;-7.470;2022-12-29T13:28:37;2.45;;;0.50;;
64252;SDS011;50592;52.958;-7.470;2022-12-29T13:31:15;6.05;;;0.40;;
64252;SDS011;50592;52.958;-7.470;2022-12-29T13:41:41;2.70;;;0.55;;
64252;SDS011;50592;52.958;-7.470;2022-12-29T13:44:15;2.28;;;0.50;;
64252;SDS011;50592;52.958;-7.470;2022-12-29T13:46:45;2.83;;;0.50;;
64252;SDS011;50592;52.958;-7.470;2022-12-29T13:49:13;4.68;;;0.80;;
64252;SDS011;50592;52.958;-7.470;2022-12-29T13:51:46;6.22;;;1.08;;
64252;SDS011;50592;52.958;-7.470;2022-12-29T13:54:17;6.03;;;1.20;;
64252;SDS011;50592;52.958;-7.470;2022-12-29T14:00:11;3.72;;;1.02;;
64252;SDS011;50592;52.958;-7.470;2022-12-29T14:07:47;5.63;;;0.68;;
64252;SDS011;50592;52.958;-7.470;2022-12-29T14:10:28;8.07;;;1.45;;
64252;SDS011;50592;52.958;-7.470;2022-12-29T14:12:59;6.32;;;1.15;;
64252;SDS011;50592;52.958;-7.470;2022-12-29T14:15:31;5.07;;;0.80;;
64252;SDS011;50592;52.958;-7.470;2022-12-29T14:18:32;3.78;;;0.80;;
64252;SDS011;50592;52.958;-7.470;2022-12-29T14:21:04;2.55;;;0.50;;
64252;SDS011;50592;52.958;-7.470;2022-12-29T14:23:41;9.02;;;1.67;;
64252;SDS011;50592;52.958;-7.470;2022-12-29T14:31:50;6.88;;;0.50;;
64252;SDS011;50592;52.958;-7.470;2022-12-29T14:39:30;4.63;;;0.77;;
64252;SDS011;50592;52.958;-7.470;2022-12-29T14:42:20;2.53;;;0.60;;
64252;SDS011;50592;52.958;-7.470;2022-12-29T14:44:48;0.68;;;0.43;;
64252;SDS011;50592;52.958;-7.470;2022-12-29T14:47:37;0.73;;;0.50;;
64252;SDS011;50592;52.958;-7.470;2022-12-29T14:58:32;3.97;;;0.80;;
64252;SDS011;50592;52.958;-7.470;2022-12-29T15:01:22;2.65;;;0.90;;
64252;SDS011;50592;52.958;-7.470;2022-12-29T15:03:53;3.33;;;1.48;;
64252;SDS011;50592;52.958;-7.470;2022-12-29T15:06:25;5.82;;;1.95;;
64252;SDS011;50592;52.958;-7.470;2022-12-29T15:14:02;5.93;;;2.15;;
64252;SDS011;50592;52.958;-7.470;2022-12-29T15:16:32;2.55;;;0.65;;
64252;SDS011;50592;52.958;-7.470;2022-12-29T15:19:03;3.85;;;2.65;;
64252;SDS011;50592;52.958;-7.470;2022-12-29T15:21:32;13.00;;;4.35;;
64252;SDS011;50592;52.958;-7.470;2022-12-29T15:23:59;18.25;;;8.15;;
64252;SDS011;50592;52.958;-7.470;2022-12-29T15:26:36;25.17;;;14.75;;
64252;SDS011;50592;52.958;-7.470;2022-12-29T15:32:22;31.63;;;20.00;;
64252;SDS011;50592;52.958;-7.470;2022-12-29T15:34:53;58.50;;;35.50;;
64252;SDS011;50592;52.958;-7.470;2022-12-29T15:37:23;103.53;;;49.78;;
64252;SDS011;50592;52.958;-7.470;2022-12-29T15:39:51;93.78;;;43.45;;
64252;SDS011;50592;52.958;-7.470;2022-12-29T15:45:18;35.53;;;18.83;;
64252;SDS011;50592;52.958;-7.470;2022-12-29T15:47:44;96.03;;;52.63;;
64252;SDS011;50592;52.958;-7.470;2022-12-29T15:52:51;102.05;;;56.97;;
64252;SDS011;50592;52.958;-7.470;2022-12-29T15:55:39;61.70;;;33.92;;
64252;SDS011;50592;52.958;-7.470;2022-12-29T15:58:15;38.78;;;21.38;;
64252;SDS011;50592;52.958;-7.470;2022-12-29T16:01:00;54.08;;;27.63;;
64252;SDS011;50592;52.958;-7.470;2022-12-29T16:03:27;74.20;;;43.45;;
64252;SDS011;50592;52.958;-7.470;2022-12-29T16:06:09;44.10;;;24.48;;
64252;SDS011;50592;52.958;-7.470;2022-12-29T16:08:55;44.53;;;24.85;;
64252;SDS011;50592;52.958;-7.470;2022-12-29T16:11:35;71.90;;;44.50;;
64252;SDS011;50592;52.958;-7.470;2022-12-29T16:14:02;42.88;;;25.08;;
64252;SDS011;50592;52.958;-7.470;2022-12-29T16:16:40;23.13;;;12.82;;
64252;SDS011;50592;52.958;-7.470;2022-12-29T16:24:23;79.00;;;46.30;;
64252;SDS011;50592;52.958;-7.470;2022-12-29T16:29:35;45.45;;;27.13;;
64252;SDS011;50592;52.958;-7.470;2022-12-29T16:32:01;45.25;;;27.10;;
64252;SDS011;50592;52.958;-7.470;2022-12-29T16:39:21;83.40;;;49.50;;
64252;SDS011;50592;52.958;-7.470;2022-12-29T16:41:57;76.47;;;48.53;;
64252;SDS011;50592;52.958;-7.470;2022-12-29T16:44:27;114.03;;;78.03;;
64252;SDS011;50592;52.958;-7.470;2022-12-29T16:49:24;16.95;;;12.27;;
64252;SDS011;50592;52.958;-7.470;2022-12-29T16:51:51;20.88;;;12.77;;
64252;SDS011;50592;52.958;-7.470;2022-12-29T16:54:21;23.25;;;14.18;;
64252;SDS011;50592;52.958;-7.470;2022-12-29T16:57:06;73.82;;;39.47;;
64252;SDS011;50592;52.958;-7.470;2022-12-29T16:59:34;59.95;;;29.17;;
64252;SDS011;50592;52.958;-7.470;2022-12-29T17:02:13;61.92;;;26.00;;
64252;SDS011;50592;52.958;-7.470;2022-12-29T17:04:40;114.07;;;47.58;;
64252;SDS011;50592;52.958;-7.470;2022-12-29T17:07:25;81.25;;;35.15;;
64252;SDS011;50592;52.958;-7.470;2022-12-29T17:09:53;47.40;;;24.50;;
64252;SDS011;50592;52.958;-7.470;2022-12-29T17:12:21;50.30;;;25.92;;
64252;SDS011;50592;52.958;-7.470;2022-12-29T17:17:34;15.55;;;6.82;;
64252;SDS011;50592;52.958;-7.470;2022-12-29T17:22:31;5.75;;;2.03;;
64252;SDS011;50592;52.958;-7.470;2022-12-29T17:24:59;6.63;;;1.73;;
64252;SDS011;50592;52.958;-7.470;2022-12-29T17:27:28;9.57;;;1.58;;
64252;SDS011;50592;52.958;-7.470;2022-12-29T17:30:19;7.25;;;2.15;;
64252;SDS011;50592;52.958;-7.470;2022-12-29T17:32:52;9.00;;;2.05;;
64252;SDS011;50592;52.958;-7.470;2022-12-29T17:35:20;8.85;;;2.30;;
64252;SDS011;50592;52.958;-7.470;2022-12-29T17:37:47;6.35;;;2.20;;
64252;SDS011;50592;52.958;-7.470;2022-12-29T17:40:15;23.02;;;4.00;;
64252;SDS011;50592;52.958;-7.470;2022-12-29T17:42:44;9.27;;;1.60;;
64252;SDS011;50592;52.958;-7.470;2022-12-29T17:45:15;11.38;;;1.45;;
64252;SDS011;50592;52.958;-7.470;2022-12-29T17:47:43;7.05;;;1.40;;
64252;SDS011;50592;52.958;-7.470;2022-12-29T17:50:13;4.40;;;1.35;;
64252;SDS011;50592;52.958;-7.470;2022-12-29T17:52:41;7.13;;;1.60;;
64252;SDS011;50592;52.958;-7.470;2022-12-29T17:55:13;6.07;;;1.55;;
64252;SDS011;50592;52.958;-7.470;2022-12-29T17:57:41;11.43;;;1.60;;
64252;SDS011;50592;52.958;-7.470;2022-12-29T18:00:08;7.72;;;1.67;;
64252;SDS011;50592;52.958;-7.470;2022-12-29T18:02:39;7.47;;;1.70;;
64252;SDS011;50592;52.958;-7.470;2022-12-29T18:05:08;8.35;;;1.70;;
64252;SDS011;50592;52.958;-7.470;2022-12-29T18:07:42;9.73;;;1.92;;